Flight Track Log - Related Links

Times and Time Zones

All times are in EDT time to prevent confusion due to time zone crossing. See the N250AJ flight status page for this flight to view local times or setup timezone preferences in your user account.

Time Position Orientation Groundspeed Altitude Reporting Facility
EDT Latitude Longitude Course Direction KTS MPH feet Rate Location/Type
Wed 08:09:51 AM 41.4156 -70.7322 336° Northwest 272 313 6,600  Level Boston Center
Wed 08:10:53 AM 41.4872 -70.6667 34° Northeast 290 334 9,500 2,146 Climbing Boston Center
Wed 08:11:54 AM 41.5422 -70.6025 41° Northeast 302 348 11,000 738 Climbing Boston Center
Wed 08:12:55 AM 41.6203 -70.5108 41° Northeast 376 433 11,000 787 Level Boston Center
Wed 08:13:56 AM 41.7047 -70.4119 41° Northeast 400 460 12,600 2,016 Climbing Boston Center
Wed 08:14:00 AM 41.5950 -71.3378 291° West  Level Estimated
Wed 08:14:57 AM 41.8011 -70.2981 41° Northeast 389 448 15,100  Level Boston Center
Wed 08:15:58 AM 41.8900 -70.2342 28° Northeast 373 429 17,000 1,869 Climbing Boston Center
Wed 08:16:59 AM 41.9908 -70.1925 17° North 374 430 18,900 1,770 Climbing Boston Center
Wed 08:18:00 AM 42.0869 -70.1464 20° North 372 428 20,600 1,721 Climbing Boston Center
Wed 08:19:01 AM 42.1828 -70.1003 20° North 370 426 22,400 1,721 Climbing Boston Center
Wed 08:20:02 AM 42.2786 -70.0500 21° North 370 426 24,100 1,721 Climbing Boston Center
Wed 08:21:03 AM 42.3744 -69.9969 22° Northeast 371 427 25,900 1,707 Climbing Boston Center
Wed 08:22:05 AM 42.4692 -69.9425 23° Northeast 371 427 27,600 1,707 Climbing Boston Center
Wed 08:23:06 AM 42.5639 -69.8925 21° North 369 425 29,400 1,426 Climbing Boston Center
Wed 08:24:07 AM 42.6578 -69.8453 20° North 363 418 30,500 1,033 Climbing Boston Center
Wed 08:25:08 AM 42.7600 -69.8256 North 380 437 31,500 738 Climbing Boston Center
Wed 08:26:09 AM 42.8706 -69.8508 350° North 373 429 32,000 246 Climbing Boston Center
Wed 08:27:10 AM 42.9675 -69.9150 334° Northwest 395 455 32,000 98 Level Boston Center
Wed 08:28:11 AM 43.0231 -70.0458 300° West 402 463 32,200 443 Climbing Boston Center
Wed 08:29:12 AM 43.0372 -70.1944 277° West 401 461 32,900 738 Climbing Boston Center
Wed 08:30:13 AM 43.0456 -70.3711 274° West 393 452 33,700 836 Climbing Boston Center
Wed 08:31:14 AM 43.0514 -70.5192 273° West 393 452 34,600 787 Climbing Boston Center
Wed 08:32:15 AM 43.0581 -70.6650 274° West 390 449 35,300 689 Climbing Boston Center
Wed 08:33:16 AM 43.0633 -70.8097 273° West 385 443 36,000 344 Climbing Boston Center
Wed 08:34:17 AM 43.0683 -70.9578 273° West 387 445 36,000  Level Boston Center
Wed 08:35:18 AM 43.0739 -71.1114 273° West 399 459 36,000  Level Boston Center
Wed 08:36:19 AM 43.0794 -71.2681 273° West 409 471 36,000  Level Boston Center
Wed 08:37:21 AM 43.0850 -71.4239 273° West 412 474 36,000  Level Boston Center
Wed 08:38:22 AM 43.0903 -71.5981 272° West 407 468 36,000  Level Boston Center
Wed 08:39:23 AM 43.0950 -71.7542 272° West 409 471 36,000  Level Boston Center
Wed 08:40:24 AM 43.0997 -71.9100 272° West 410 472 36,000  Level Boston Center
Wed 08:41:25 AM 43.1039 -72.0656 272° West 411 473 36,000  Level Boston Center
Wed 08:42:26 AM 43.1081 -72.2236 272° West 413 475 36,000  Level Boston Center
Wed 08:43:27 AM 43.1119 -72.3906 272° West 414 476 36,000  Level Boston Center
Wed 08:44:28 AM 43.1158 -72.5475 272° West 414 476 36,000  Level Boston Center
Wed 08:45:29 AM 43.1200 -72.7078 272° West 414 476 36,000  Level Boston Center
Wed 08:46:31 AM 43.1233 -72.8636 272° West 414 476 36,000  Level Boston Center
Wed 08:47:32 AM 43.1261 -73.0325 271° West 413 475 36,000  Level Boston Center
Wed 08:48:33 AM 43.1292 -73.1883 272° West 413 475 36,000  Level Boston Center
Wed 08:49:34 AM 43.1317 -73.3397 271° West 406 467 36,000  Level Boston Center
Wed 08:50:35 AM 43.1339 -73.4883 271° West 399 459 36,000  Level Boston Center
Wed 08:51:36 AM 43.1356 -73.6311 271° West 398 458 36,000  Level Boston Center
Wed 08:52:37 AM 43.1389 -73.8131 272° West 398 458 36,000  Level Boston Center
Wed 08:53:39 AM 43.1400 -73.9644 271° West 398 458 36,000  Level Boston Center
Wed 08:54:40 AM 43.1411 -74.0919 271° West 398 458 36,000  Level Boston Center
Wed 08:55:41 AM 43.1433 -74.2733 271° West 399 459 36,000  Level Boston Center
Wed 08:56:42 AM 43.1442 -74.4239 270° West 399 459 36,000  Level Boston Center
Wed 08:57:43 AM 43.1450 -74.5717 270° West 395 455 36,000 -49 Level Boston Center
Wed 08:58:44 AM 43.1464 -74.7189 271° West 391 450 35,900 -634 Descending Boston Center
Wed 08:59:46 AM 43.1453 -74.8669 269° West 391 450 34,700 -1,171 Descending Boston Center
Wed 09:00:47 AM 43.1456 -75.0156 270° West 391 450 33,500 -1,623 Descending Boston Center
Wed 09:01:48 AM 43.1469 -75.1664 271° West 393 452 31,400 -2,164 Descending Boston Center
Wed 09:02:49 AM 43.1447 -75.3297 269° West 399 459 29,100 -2,115 Descending Boston Center
Wed 09:03:50 AM 43.1456 -75.4792 270° West 396 456 27,100 -1,967 Descending Boston Center
Wed 09:04:51 AM 43.1439 -75.6286 269° West 396 456 25,100 -2,000 Descending Boston Center
Wed 09:05:53 AM 43.1431 -75.7800 270° West 396 456 23,000 -2,000 Descending Boston Center
Wed 09:06:54 AM 43.1433 -75.9317 270° West 397 457 21,000 -1,918 Descending Boston Center
Wed 09:07:55 AM 43.1419 -76.0761 269° West 385 443 19,100 -984 Descending Boston Center
Wed 09:08:56 AM 43.1408 -76.2464 270° West 377 434 19,000 -49 Descending Boston Center
Wed 09:09:57 AM 43.1394 -76.3850 269° West 370 426 19,000 -590 Level Boston Center
Wed 09:10:58 AM 43.1381 -76.5222 269° West 365 420 17,800 -1,574 Descending Boston Center
Wed 09:11:59 AM 43.1364 -76.6408 269° West 321 369 15,800 -1,967 Descending Boston Center
Wed 09:13:00 AM 43.1353 -76.7556 269° West 306 352 13,800 -1,951 Descending Boston Center
Wed 09:14:02 AM 43.1325 -76.8733 268° West 307 353 11,800 -1,610 Descending Boston Center
Wed 09:15:03 AM 43.1317 -76.9906 269° West 312 359 10,500 -1,500 Descending Boston Center
Wed 09:15:54 AM 43.1322 -77.0675 271° West 279 321 9,000 -2,096 Descending Cleveland Center
Wed 09:16:26 AM 43.1314 -77.1319 269° West 246 283 7,600 -2,286 Descending Cleveland Center
Wed 09:16:57 AM 43.1314 -77.1806 270° West 259 298 6,600 -1,869 Descending Cleveland Center
Wed 09:17:27 AM 43.1314 -77.2247 270° West 245 282 5,700 -1,839 Descending Cleveland Center
Wed 09:17:59 AM 43.1317 -77.2706 270° West 248 285 4,700 -1,869 Descending Cleveland Center
Wed 09:18:28 AM 43.1317 -77.3144 270° West 235 270 3,800 -1,742 Descending Cleveland Center
Wed 09:19:01 AM 43.1311 -77.3586 269° West 241 277 2,900 -1,300 Descending Cleveland Center
Wed 09:19:28 AM 43.1314 -77.4072 270° West 228 262 2,500 -387 Descending Cleveland Center
Wed 09:20:03 AM 43.1306 -77.4419 268° West 232 267 2,500  Level Cleveland Center
Wed 09:20:29 AM 43.1278 -77.4786 264° West 174 200 2,500  Level Cleveland Center
Wed 09:21:05 AM 43.1283 -77.5097 271° West 206 237 2,500 -295 Level Cleveland Center
Wed 09:21:30 AM 43.1272 -77.5422 267° West 162 186 2,200 -677 Descending Cleveland Center
Wed 09:22:07 AM 43.1258 -77.5728 266° West 166 191 1,800 -700 Descending Cleveland Center
Wed 09:22:30 AM 43.1250 -77.5881 266° West 110 127 1,500 -677 Descending Cleveland Center
Wed 09:23:09 AM 43.1242 -77.6150 268° West 134 154 1,100 -590 Descending Cleveland Center
Wed 09:23:31 AM 43.1228 -77.6336 264° West 116 133 900 -581 Descending Cleveland Center
Wed 09:24:11 AM 43.1231 -77.6575 271° West 121 139 500 -600 Descending Cleveland Center

Login

Don't have an account? Register now (free) for customized features, flight alerts, and more!